Aeroporto :
LOGIN :

Iscrizione | Disclaimer

   EN    FR    IT 

 










Sommario :    VFR   VFR Marginale   IFR   IFR Intensivo   IFR Molto Intensivo
Visibilità : 
Base nubi : 
>= 8 km
>= 3000ft
5 / 8 km
1000 / 3000 ft
1500m / 5 km
500 / 1000 ft
800 / 1500m
200 / 500 ft
< 800m
< 200 ft
Simboli :   Temporali  Nebbia  Neve Forte  Precipitazioni Forti  Vento > 20 kt
SIGMETs :   Varie  Temporali  Ghiacco  Turbolenza  Onda orograficha  Ceneri Vulcaniche






- Altitudine del aeroporto : 59 ft
- Codice IATA : TSF


LIPH - Treviso

ULTIMO METAR :
  • 131720Z 18005KT 150V210 CAVOK 26/09 Q1017

METARs OBSOLETI :
  • 131650Z 14005KT 120V190 CAVOK 26/10 Q1017
  • 131620Z 14004KT 080V210 CAVOK 27/10 Q1017
  • 131550Z 09005KT 040V120 CAVOK 27/10 Q1017
  • 131520Z 05005KT 360V090 CAVOK 27/11 Q1018
  • 131450Z VRB04KT CAVOK 27/12 Q1018

TAF TAF LIPH
Valido dal 13 a 18 ore il 14 a 18 ore UTC


131700Z 1318/1418 09005KT 9999 SCT040



MetMap, La meteo Aeronautica in un colpo d'occhio ! - Copyright ORBIFLY Dicembre 2007 - Disclaimer

ORBIFLY MET'MAP TEAM :

Programmazione e sviluppo : Alexandra Zaïnal
Concezione : Baudouin d'Aumeries
Aiuto per la programmazione : Marc-Olivier Méhu
Supporto tecnico e logistico : Manuel Goepfert
Aiuto per la traduzione : Arnaldo La Scala

Contatto : metmap@orbifly.com




FONTI E CREDITI :

   NOAA